Somerville, Massachusetts
Current Conditions -  °F | °C
As of 3:54 PM on Saturday 25 Oct 2014 (Local Time) from KBOS Reporting Station
Few Clouds Few Clouds  
Wind Chill: 64°   Ceiling: Unl
Heat Index: 64°   Visibility: 10mi
Dew Point: 38°   Wind: 9mph
Humidity: 38%   Direction: 280°W
Pressure: 29.6"   Gusts: NA
Location:  42.39°N, 71.1°W
Report Text: KBOS 251954Z 28008KT 10SM FEW250 18/03 A2960 RMK AO2 SLP023 T01780033
Loading
Personal Weather Stations






























Interactive Weather Map
Tropical Storm Tracking
New forecast layout! Learn more

10-Day Weather Forecast

Advertisements
Track Severe Weather on mobile